createdAt,value
2018-03-19T00:01:17.551Z,10.18
2018-03-19T00:03:43.623Z,10.27
2018-03-19T00:06:09.724Z,8.90
2018-03-19T00:08:35.794Z,10.45
2018-03-19T00:11:01.885Z,8.90
2018-03-19T00:13:28.714Z,9.20
2018-03-19T00:15:54.822Z,8.13
2018-03-19T00:18:20.903Z,10.55
2018-03-19T00:20:47.759Z,10.25
2018-03-19T00:23:13.852Z,9.18
2018-03-19T00:25:39.937Z,9.38
2018-03-19T00:28:06.770Z,8.80
2018-03-19T00:30:32.836Z,8.40
2018-03-19T00:32:59.658Z,11.57
2018-03-19T00:35:25.721Z,8.32
2018-03-19T00:37:52.530Z,9.57
2018-03-19T00:40:18.622Z,9.63
2018-03-19T00:42:45.462Z,10.07
2018-03-19T00:45:12.272Z,9.52
2018-03-19T00:47:38.343Z,8.90
2018-03-19T00:50:04.423Z,9.55
2018-03-19T00:52:30.503Z,11.85
2018-03-19T00:54:56.575Z,10.65
2018-03-19T00:57:23.417Z,10.98
2018-03-19T00:59:49.497Z,13.43
2018-03-19T01:02:15.602Z,8.88
2018-03-19T01:04:42.430Z,9.23
2018-03-19T01:07:08.509Z,9.32
2018-03-19T01:09:35.306Z,8.60
2018-03-19T01:12:01.375Z,9.50
2018-03-19T01:14:27.458Z,10.45
2018-03-19T01:16:53.538Z,9.90
2018-03-19T01:19:19.635Z,12.35
2018-03-19T01:21:45.735Z,10.30
2018-03-19T01:24:12.544Z,11.05
2018-03-19T01:26:38.629Z,10.82
2018-03-19T01:29:05.446Z,9.18
2018-03-19T01:31:31.521Z,9.70
2018-03-19T01:33:58.337Z,12.48
2018-03-19T01:36:24.429Z,10.80
2018-03-19T01:38:50.498Z,11.12
2018-03-19T01:41:16.578Z,10.90
2018-03-19T01:43:42.626Z,11.07
2018-03-19T01:46:09.449Z,9.77
2018-03-19T01:48:35.543Z,9.23
2018-03-19T01:51:01.607Z,10.30
2018-03-19T01:53:27.691Z,11.07
2018-03-19T01:55:54.487Z,10.75
2018-03-19T01:58:20.586Z,10.93
2018-03-19T02:00:47.412Z,9.38
2018-03-19T02:03:13.523Z,10.35
2018-03-19T02:05:39.608Z,9.25
2018-03-19T02:08:06.441Z,11.00
2018-03-19T02:10:32.543Z,9.48
2018-03-19T02:12:58.614Z,11.88
2018-03-19T02:15:24.722Z,10.35
2018-03-19T02:17:50.813Z,10.05
2018-03-19T02:20:16.980Z,9.25
2018-03-19T02:22:43.077Z,9.00
2018-03-19T02:25:09.181Z,10.65
2018-03-19T02:27:35.282Z,9.93
2018-03-19T02:30:02.157Z,10.25
2018-03-19T02:32:28.268Z,9.07
2018-03-19T02:34:55.130Z,11.30
2018-03-19T02:37:21.976Z,9.88
2018-03-19T02:39:48.075Z,9.95
2018-03-19T02:42:14.170Z,8.48
2018-03-19T02:44:41.013Z,9.68
2018-03-19T02:47:07.839Z,9.65
2018-03-19T02:49:33.975Z,11.82
2018-03-19T02:52:00.096Z,10.95
2018-03-19T02:54:26.181Z,10.32
2018-03-19T02:56:52.621Z,11.15
2018-03-19T02:59:19.467Z,12.07
2018-03-19T03:01:45.583Z,10.43
2018-03-19T03:04:11.659Z,11.45
2018-03-19T03:06:38.507Z,10.35
2018-03-19T03:09:04.635Z,10.65
2018-03-19T03:11:30.757Z,10.10
2018-03-19T03:13:56.840Z,8.77
2018-03-19T03:16:23.686Z,10.80
2018-03-19T03:18:50.512Z,10.00
2018-03-19T03:21:16.668Z,10.73
2018-03-19T03:23:42.752Z,9.48
2018-03-19T03:26:08.871Z,13.27
2018-03-19T03:28:34.947Z,10.80
2018-03-19T03:31:01.094Z,10.45
2018-03-19T03:33:27.200Z,8.95
2018-03-19T03:35:53.284Z,9.20
2018-03-19T03:38:19.401Z,11.68
2018-03-19T03:40:45.504Z,13.57
2018-03-19T03:43:11.621Z,12.35
2018-03-19T03:45:38.444Z,9.15
2018-03-19T03:48:04.567Z,10.88
2018-03-19T03:50:30.647Z,11.25
2018-03-19T03:52:56.725Z,9.68
2018-03-19T03:55:22.844Z,8.68
2018-03-19T03:57:49.670Z,10.02
2018-03-19T04:00:15.771Z,10.13
2018-03-19T04:02:41.885Z,9.43
2018-03-19T04:05:07.964Z,9.40
2018-03-19T04:07:34.059Z,7.85
2018-03-19T04:10:00.132Z,10.13
2018-03-19T04:12:26.277Z,9.43
2018-03-19T04:14:52.324Z,9.73
2018-03-19T04:17:18.431Z,8.55
2018-03-19T04:19:44.520Z,9.75
2018-03-19T04:22:11.387Z,9.07
2018-03-19T04:24:37.588Z,9.77
2018-03-19T04:27:03.682Z,9.48
2018-03-19T04:29:29.796Z,11.55
2018-03-19T04:31:56.616Z,11.18
2018-03-19T04:34:22.735Z,11.98
2018-03-19T04:36:49.548Z,12.00
2018-03-19T04:39:16.392Z,11.00
2018-03-19T04:41:42.472Z,10.00
2018-03-19T04:44:08.600Z,9.40
2018-03-19T04:46:34.679Z,10.05
2018-03-19T04:49:00.784Z,10.43
2018-03-19T04:51:26.876Z,11.88
2018-03-19T04:53:52.972Z,10.10
2018-03-19T04:56:19.084Z,9.75
2018-03-19T04:58:45.174Z,9.73
2018-03-19T05:01:11.276Z,9.23
2018-03-19T05:03:37.420Z,10.40
2018-03-19T05:06:03.512Z,12.88
2018-03-19T05:08:29.595Z,11.75
2018-03-19T05:10:56.784Z,11.52
2018-03-19T05:13:22.892Z,10.10
2018-03-19T05:15:48.998Z,9.65
2018-03-19T05:18:15.820Z,10.63
2018-03-19T05:20:41.931Z,9.57
2018-03-19T05:23:08.004Z,10.50
2018-03-19T05:25:34.115Z,11.20
2018-03-19T05:28:00.208Z,9.73
2018-03-19T05:30:27.027Z,10.35
2018-03-19T05:32:53.131Z,9.50
2018-03-19T05:35:19.215Z,9.40
2018-03-19T05:37:45.347Z,13.50
2018-03-19T05:40:11.427Z,12.02
2018-03-19T05:42:38.258Z,11.23
2018-03-19T05:45:04.377Z,11.50
2018-03-19T05:47:30.512Z,11.12
2018-03-19T05:49:56.587Z,12.30
2018-03-19T05:52:23.424Z,13.73
2018-03-19T05:54:49.534Z,12.48
2018-03-19T05:57:15.653Z,13.80
2018-03-19T05:59:41.751Z,13.77
2018-03-19T06:02:08.568Z,14.52
2018-03-19T06:04:34.672Z,12.37
2018-03-19T06:07:00.755Z,16.33
2018-03-19T06:09:26.883Z,13.73
2018-03-19T06:11:53.010Z,10.98
2018-03-19T06:14:19.093Z,10.55
2018-03-19T06:16:45.913Z,13.50
2018-03-19T06:19:12.020Z,12.85
2018-03-19T06:21:38.099Z,10.73
2018-03-19T06:24:04.208Z,12.50
2018-03-19T06:26:31.036Z,10.00
2018-03-19T06:28:57.155Z,14.65
2018-03-19T06:31:23.974Z,10.68
2018-03-19T06:33:50.094Z,11.23
2018-03-19T06:36:16.221Z,10.07
2018-03-19T06:38:42.475Z,11.43
2018-03-19T06:41:08.583Z,11.63
2018-03-19T06:43:35.432Z,12.35
2018-03-19T06:46:02.268Z,12.57
2018-03-19T06:48:28.422Z,9.88
2018-03-19T06:50:55.247Z,8.52
2018-03-19T06:53:21.352Z,9.25
2018-03-19T06:55:47.447Z,10.68
2018-03-19T06:58:14.263Z,11.00
2018-03-19T07:00:40.372Z,11.30
2018-03-19T07:03:06.475Z,9.90
2018-03-19T07:05:33.335Z,11.93
2018-03-19T07:08:00.167Z,12.35
2018-03-19T07:10:26.283Z,10.95
2018-03-19T07:12:52.373Z,10.30
2018-03-19T07:15:19.188Z,10.32
2018-03-19T07:17:45.318Z,9.52
2018-03-19T07:20:11.435Z,10.55
2018-03-19T07:22:37.548Z,12.52
2018-03-19T07:25:04.376Z,10.13
2018-03-19T07:27:30.475Z,10.90
2018-03-19T07:29:56.552Z,10.77
2018-03-19T07:32:22.661Z,10.55
2018-03-19T07:34:48.786Z,10.63
2018-03-19T07:37:14.864Z,9.65
2018-03-19T07:39:40.955Z,10.30
2018-03-19T07:42:07.064Z,10.40
2018-03-19T07:44:33.888Z,9.07
2018-03-19T07:46:59.984Z,8.65
2018-03-19T07:49:26.093Z,10.05
2018-03-19T07:51:52.945Z,10.32
2018-03-19T07:54:19.769Z,13.30
2018-03-19T07:56:45.880Z,9.20
2018-03-19T07:59:11.975Z,11.15
2018-03-19T08:01:38.834Z,9.98
2018-03-19T08:04:05.652Z,11.05
2018-03-19T08:06:31.800Z,11.30
2018-03-19T08:08:57.907Z,10.63
2018-03-19T08:11:24.028Z,10.35
2018-03-19T08:13:50.156Z,14.13
2018-03-19T08:16:16.254Z,9.45
2018-03-19T08:18:42.367Z,9.93
2018-03-19T08:21:08.476Z,9.30
2018-03-19T08:23:34.587Z,10.48
2018-03-19T08:26:01.404Z,9.63
2018-03-19T08:28:28.587Z,10.02
2018-03-19T08:30:54.693Z,10.38
2018-03-19T08:33:20.780Z,12.85
2018-03-19T08:35:47.637Z,11.20
2018-03-19T08:38:14.465Z,10.68
2018-03-19T08:40:40.588Z,10.88
2018-03-19T08:43:06.705Z,10.85
2018-03-19T08:45:32.795Z,12.00
2018-03-19T08:47:58.912Z,10.90
2018-03-19T08:50:24.993Z,10.63
2018-03-19T08:52:51.864Z,10.25
2018-03-19T08:55:17.971Z,10.65
2018-03-19T08:57:44.060Z,12.25
2018-03-19T09:00:10.198Z,10.30
2018-03-19T09:02:36.284Z,9.77
2018-03-19T09:05:02.531Z,10.18
2018-03-19T09:07:28.651Z,10.25
2018-03-19T09:09:54.735Z,9.80
2018-03-19T09:12:20.855Z,11.32
2018-03-19T09:14:47.675Z,11.40
2018-03-19T09:17:13.806Z,9.88
2018-03-19T09:19:39.904Z,12.52
2018-03-19T09:22:06.028Z,10.90
2018-03-19T09:24:32.900Z,9.07
2018-03-19T09:26:59.015Z,9.95
2018-03-19T09:29:25.903Z,10.68
2018-03-19T09:31:51.996Z,9.88
2018-03-19T09:34:18.103Z,10.73
2018-03-19T09:36:44.232Z,9.90
2018-03-19T09:39:10.337Z,11.07
2018-03-19T09:41:36.581Z,10.13
2018-03-19T09:44:02.640Z,11.98
2018-03-19T09:46:28.776Z,10.82
2018-03-19T09:48:54.900Z,12.20
2018-03-19T09:51:21.024Z,11.43
2018-03-19T09:53:47.853Z,11.18
2018-03-19T09:56:13.959Z,10.95
2018-03-19T09:58:40.072Z,13.70
2018-03-19T10:01:06.198Z,9.45
2018-03-19T10:03:33.061Z,11.43
2018-03-19T10:05:59.188Z,11.70
2018-03-19T10:08:26.011Z,13.13
2018-03-19T10:10:52.133Z,16.35
2018-03-19T10:13:18.306Z,65.70
2018-03-19T10:15:44.395Z,22.27
2018-03-19T10:18:10.487Z,21.87
2018-03-19T10:20:37.348Z,10.15
2018-03-19T10:23:04.240Z,11.25
2018-03-19T10:25:30.341Z,10.95
2018-03-19T10:27:57.196Z,10.38
2018-03-19T10:30:24.042Z,12.15
2018-03-19T10:32:50.169Z,11.50
2018-03-19T10:35:16.261Z,11.15
2018-03-19T10:37:42.356Z,11.45
2018-03-19T10:40:08.480Z,12.95
2018-03-19T10:42:34.572Z,10.00
2018-03-19T10:45:00.688Z,11.20
2018-03-19T10:47:27.524Z,11.80
2018-03-19T10:49:53.644Z,11.65
2018-03-19T10:52:19.772Z,10.90
2018-03-19T10:54:45.883Z,12.60
2018-03-19T10:57:11.996Z,12.27
2018-03-19T10:59:38.885Z,11.07
2018-03-19T11:02:11.222Z,10.40
2018-03-19T11:04:37.337Z,12.02
2018-03-19T11:07:09.604Z,12.63
2018-03-19T11:09:36.476Z,14.20
2018-03-19T11:12:02.668Z,12.50
2018-03-19T11:14:28.733Z,14.38
2018-03-19T11:16:54.812Z,12.48
2018-03-19T11:19:20.904Z,13.62
2018-03-19T11:21:47.031Z,11.10
2018-03-19T11:24:13.116Z,11.65
2018-03-19T11:26:39.236Z,10.32
2018-03-19T11:29:05.332Z,10.23
2018-03-19T11:31:31.429Z,12.50
2018-03-19T11:33:57.656Z,11.15
2018-03-19T11:36:23.748Z,12.40
2018-03-19T11:38:49.922Z,11.98
2018-03-19T11:41:16.043Z,13.23
2018-03-19T11:43:42.143Z,12.70
2018-03-19T11:46:09.000Z,12.48
2018-03-19T11:48:35.832Z,12.07
2018-03-19T11:51:01.981Z,11.00
2018-03-19T11:53:28.085Z,12.13
2018-03-19T11:55:54.204Z,11.65
2018-03-19T11:58:20.284Z,13.52
2018-03-19T12:00:46.389Z,15.32
2018-03-19T12:03:12.489Z,12.93
2018-03-19T12:05:39.429Z,13.70
2018-03-19T12:08:05.553Z,10.40
2018-03-19T12:10:31.648Z,9.70
2018-03-19T12:12:57.724Z,10.85
2018-03-19T12:15:23.843Z,11.30
2018-03-19T12:17:49.932Z,13.27
2018-03-19T12:20:16.805Z,12.30
2018-03-19T12:22:42.903Z,11.40
2018-03-19T12:25:08.985Z,12.77
2018-03-19T12:27:35.122Z,11.05
2018-03-19T12:30:01.212Z,12.43
2018-03-19T12:32:27.337Z,12.05
2018-03-19T12:34:53.433Z,13.43
2018-03-19T12:37:20.275Z,11.77
2018-03-19T12:39:47.148Z,11.45
2018-03-19T12:42:13.237Z,11.95
2018-03-19T12:44:39.387Z,11.75
2018-03-19T12:47:05.536Z,12.00
2018-03-19T12:49:31.616Z,12.10
2018-03-19T12:51:57.692Z,11.88
2018-03-19T12:54:23.812Z,10.10
2018-03-19T12:56:49.905Z,12.13
2018-03-19T12:59:16.769Z,11.05
2018-03-19T13:01:43.580Z,9.63
2018-03-19T13:04:09.696Z,12.15
2018-03-19T13:06:35.771Z,14.05
2018-03-19T13:09:01.912Z,12.60
2018-03-19T13:11:28.028Z,11.80
2018-03-19T13:13:54.135Z,12.13
2018-03-19T13:16:20.261Z,13.25
2018-03-19T13:18:46.348Z,10.40
2018-03-19T13:21:12.473Z,11.35
2018-03-19T13:23:38.588Z,16.30
2018-03-19T13:26:04.683Z,12.60
2018-03-19T13:28:30.794Z,12.93
2018-03-19T13:30:56.888Z,9.93
2018-03-19T13:33:23.012Z,9.48
2018-03-19T13:35:49.848Z,13.50
2018-03-19T13:38:15.936Z,13.93
2018-03-19T13:40:42.051Z,14.35
2018-03-19T13:43:08.167Z,17.62
2018-03-19T13:45:34.300Z,16.17
2018-03-19T13:48:00.405Z,12.05
2018-03-19T13:50:26.516Z,16.87
2018-03-19T13:52:52.630Z,20.62
2018-03-19T13:55:19.460Z,14.48
2018-03-19T13:57:45.576Z,15.25
2018-03-19T14:00:11.719Z,15.45
2018-03-19T14:02:37.820Z,10.20
2018-03-19T14:05:03.903Z,16.23
2018-03-19T14:07:30.023Z,12.05
2018-03-19T14:09:56.157Z,13.27
2018-03-19T14:12:22.566Z,10.52
2018-03-19T14:14:48.665Z,10.13
2018-03-19T14:17:14.827Z,11.03
2018-03-19T14:19:40.936Z,10.70
2018-03-19T14:22:07.024Z,13.83
2018-03-19T14:24:33.884Z,13.23
2018-03-19T14:27:00.043Z,13.43
2018-03-19T14:29:26.135Z,14.20
2018-03-19T14:31:52.352Z,12.03
2018-03-19T14:34:18.504Z,12.70
2018-03-19T14:36:44.596Z,11.00
2018-03-19T14:39:10.720Z,10.63
2018-03-19T14:41:36.928Z,11.03
2018-03-19T14:44:03.044Z,12.87
2018-03-19T14:46:29.207Z,11.20
2018-03-19T14:48:55.303Z,10.17
2018-03-19T14:51:21.412Z,11.17
2018-03-19T14:53:47.523Z,10.40
2018-03-19T14:56:13.652Z,10.30
2018-03-19T14:58:39.748Z,11.27
2018-03-19T15:01:05.854Z,10.77
2018-03-19T15:03:32.741Z,10.47
2018-03-19T15:05:58.827Z,9.67
2018-03-19T15:08:24.915Z,9.50
2018-03-19T15:10:51.104Z,12.07
2018-03-19T15:13:17.216Z,10.20
2018-03-19T15:15:43.321Z,9.40
2018-03-19T15:18:09.504Z,8.73
2018-03-19T15:20:35.611Z,10.43
2018-03-19T15:23:01.731Z,9.73
2018-03-19T15:25:27.852Z,12.67
2018-03-19T15:27:54.741Z,11.10
2018-03-19T15:30:20.832Z,11.33
2018-03-19T15:32:46.960Z,10.83
2018-03-19T15:35:13.080Z,11.47
2018-03-19T15:37:39.164Z,11.40
2018-03-19T15:40:06.089Z,10.17
2018-03-19T15:42:32.184Z,10.83
2018-03-19T15:44:58.295Z,11.30
2018-03-19T15:47:24.387Z,15.00
2018-03-19T15:49:50.504Z,14.07
2018-03-19T15:52:16.621Z,12.43
2018-03-19T15:54:43.476Z,11.15
2018-03-19T15:57:10.300Z,10.57
2018-03-19T15:59:36.462Z,11.12
2018-03-19T16:02:02.540Z,10.95
2018-03-19T16:04:28.655Z,10.90
2018-03-19T16:06:55.526Z,10.93
2018-03-19T16:09:21.611Z,11.63
2018-03-19T16:11:47.745Z,12.30
2018-03-19T16:14:13.839Z,11.65
2018-03-19T16:16:40.043Z,11.65
2018-03-19T16:19:06.147Z,11.45
2018-03-19T16:21:32.280Z,12.20
2018-03-19T16:23:58.421Z,11.98
2018-03-19T16:26:24.649Z,11.05
2018-03-19T16:28:50.749Z,11.93
2018-03-19T16:31:17.616Z,12.82
2018-03-19T16:33:43.708Z,11.20
2018-03-19T16:36:09.832Z,11.15
2018-03-19T16:38:35.911Z,12.30
2018-03-19T16:41:02.772Z,13.65
2018-03-19T16:43:29.631Z,16.42
2018-03-19T16:45:56.515Z,17.48
2018-03-19T16:48:22.644Z,14.48
2018-03-19T16:50:48.782Z,13.07
2018-03-19T16:53:14.872Z,15.02
2018-03-19T16:55:40.956Z,16.52
2018-03-19T16:58:07.093Z,15.02
2018-03-19T17:00:34.317Z,15.25
2018-03-19T17:03:00.407Z,16.60
2018-03-19T17:05:26.495Z,17.30
2018-03-19T17:07:52.640Z,15.57
2018-03-19T17:10:19.780Z,17.10
2018-03-19T17:12:45.913Z,17.10
2018-03-19T17:15:12.007Z,17.17
2018-03-19T17:17:38.087Z,16.77
2018-03-19T17:20:04.231Z,13.85
2018-03-19T17:22:31.942Z,15.20
2018-03-19T17:24:58.797Z,16.33
2018-03-19T17:27:25.669Z,13.32
2018-03-19T17:29:51.876Z,13.38
2018-03-19T17:32:17.988Z,13.20
2018-03-19T17:34:44.833Z,14.80
2018-03-19T17:37:10.953Z,15.00
2018-03-19T17:39:37.063Z,14.57
2018-03-19T17:42:03.952Z,12.75
2018-03-19T17:44:30.060Z,14.25
2018-03-19T17:46:56.887Z,16.50
2018-03-19T17:49:23.000Z,19.10
2018-03-19T17:51:49.087Z,13.50
2018-03-19T17:54:15.233Z,14.82
2018-03-19T17:56:42.084Z,13.48
2018-03-19T17:59:08.971Z,13.75
2018-03-19T18:01:35.104Z,12.95
2018-03-19T18:04:01.204Z,13.18
2018-03-19T18:06:27.303Z,15.65
2018-03-19T18:08:53.468Z,15.18
2018-03-19T18:11:19.567Z,15.18
2018-03-19T18:13:45.736Z,14.45
2018-03-19T18:16:11.863Z,13.55
2018-03-19T18:18:38.020Z,13.00
2018-03-19T18:21:04.960Z,13.13
2018-03-19T18:23:31.101Z,13.95
2018-03-19T18:25:57.227Z,15.20
2018-03-19T18:28:23.341Z,14.80
2018-03-19T18:30:49.423Z,14.40
2018-03-19T18:33:15.532Z,16.27
2018-03-19T18:35:41.654Z,17.48
2018-03-19T18:38:07.862Z,15.30
2018-03-19T18:40:33.939Z,16.10
2018-03-19T18:43:00.065Z,15.70
2018-03-19T18:45:26.887Z,16.70
2018-03-19T18:47:54.008Z,16.50
2018-03-19T18:50:20.131Z,15.90
2018-03-19T18:52:46.215Z,15.90
2018-03-19T18:55:12.360Z,14.70
2018-03-19T18:57:38.476Z,15.43
2018-03-19T19:00:04.655Z,16.80
2018-03-19T19:02:30.839Z,17.67
2018-03-19T19:04:56.996Z,15.18
2018-03-19T19:07:23.171Z,14.55
2018-03-19T19:09:50.011Z,14.52
2018-03-19T19:12:16.174Z,13.75
2018-03-19T19:14:43.139Z,14.32
2018-03-19T19:17:09.964Z,16.50
2018-03-19T19:19:36.092Z,17.08
2018-03-19T19:22:02.232Z,15.43
2018-03-19T19:24:28.467Z,15.13
2018-03-19T19:26:54.568Z,17.45
2018-03-19T19:29:20.741Z,15.00
2018-03-19T19:31:46.832Z,16.35
2018-03-19T19:34:13.691Z,14.35
2018-03-19T19:36:40.521Z,17.83
2018-03-19T19:39:06.664Z,16.10
2018-03-19T19:41:32.756Z,17.58
2018-03-19T19:43:58.859Z,18.90
2018-03-19T19:46:25.716Z,16.73
2018-03-19T19:48:53.567Z,17.08
2018-03-19T19:51:19.716Z,16.05
2018-03-19T19:53:45.831Z,16.05
2018-03-19T19:56:11.948Z,17.17
2018-03-19T19:58:38.035Z,15.63
2018-03-19T20:01:04.182Z,16.92
2018-03-19T20:03:31.094Z,16.05
2018-03-19T20:05:57.197Z,15.43
2018-03-19T20:08:23.362Z,16.50
2018-03-19T20:10:49.449Z,17.55
2018-03-19T20:13:16.353Z,16.50
2018-03-19T20:15:42.472Z,17.08
2018-03-19T20:18:08.576Z,13.68
2018-03-19T20:20:35.019Z,16.02
2018-03-19T20:23:01.219Z,15.27
2018-03-19T20:25:27.415Z,15.85
2018-03-19T20:27:54.299Z,17.23
2018-03-19T20:30:21.497Z,18.08
2018-03-19T20:32:47.689Z,19.48
2018-03-19T20:35:13.840Z,18.02
2018-03-19T20:37:40.020Z,17.45
2018-03-19T20:40:06.132Z,16.95
2018-03-19T20:42:32.260Z,20.08
2018-03-19T20:44:58.460Z,21.42
2018-03-19T20:47:24.588Z,18.35
2018-03-19T20:49:50.795Z,20.05
2018-03-19T20:52:16.908Z,15.82
2018-03-19T20:54:43.116Z,15.63
2018-03-19T20:57:09.363Z,16.12
2018-03-19T20:59:35.654Z,18.92
2018-03-19T21:02:02.560Z,18.05
2018-03-19T21:04:28.680Z,22.95
2018-03-19T21:06:54.928Z,23.00
2018-03-19T21:09:21.148Z,23.80
2018-03-19T21:11:47.300Z,22.58
2018-03-19T21:14:13.412Z,21.92
2018-03-19T21:16:39.527Z,19.35
2018-03-19T21:19:05.616Z,19.08
2018-03-19T21:21:31.724Z,16.60
2018-03-19T21:23:57.892Z,14.52
2018-03-19T21:26:24.020Z,14.15
2018-03-19T21:28:50.203Z,13.88
2018-03-19T21:31:17.065Z,15.38
2018-03-19T21:33:43.957Z,13.80
2018-03-19T21:36:10.088Z,16.60
2018-03-19T21:38:36.205Z,17.50
2018-03-19T21:41:02.323Z,21.52
2018-03-19T21:43:29.338Z,16.27
2018-03-19T21:45:56.144Z,19.02
2018-03-19T21:48:22.996Z,16.90
2018-03-19T21:50:49.885Z,14.60
2018-03-19T21:53:16.006Z,18.05
2018-03-19T21:55:42.088Z,17.25
2018-03-19T21:58:08.229Z,29.92
2018-03-19T22:00:34.347Z,32.70
2018-03-19T22:03:00.433Z,63.65
2018-03-19T22:05:26.520Z,49.60
2018-03-19T22:07:52.631Z,20.20
2018-03-19T22:10:18.756Z,19.25
2018-03-19T22:12:45.585Z,18.15
2018-03-19T22:15:11.720Z,15.95
2018-03-19T22:17:37.842Z,15.85
2018-03-19T22:20:03.973Z,20.10
2018-03-19T22:22:30.099Z,17.85
2018-03-19T22:24:56.211Z,19.48
2018-03-19T22:27:23.064Z,17.37
2018-03-19T22:29:49.931Z,19.60
2018-03-19T22:32:16.013Z,17.17
2018-03-19T22:34:42.127Z,17.52
2018-03-19T22:37:08.263Z,15.65
2018-03-19T22:39:34.344Z,14.40
2018-03-19T22:42:00.442Z,16.48
2018-03-19T22:44:26.620Z,17.55
2018-03-19T22:46:52.736Z,17.52
2018-03-19T22:49:18.820Z,19.40
2018-03-19T22:51:45.756Z,17.00
2018-03-19T22:54:11.859Z,17.05
2018-03-19T22:56:37.999Z,17.12
2018-03-19T22:59:04.094Z,15.65
2018-03-19T23:01:30.931Z,14.50
2018-03-19T23:03:57.038Z,15.40
2018-03-19T23:06:23.164Z,15.18
2018-03-19T23:08:49.360Z,15.73
2018-03-19T23:11:15.471Z,16.50
2018-03-19T23:13:41.587Z,15.05
2018-03-19T23:16:07.680Z,14.95
2018-03-19T23:18:34.559Z,16.25
2018-03-19T23:21:00.691Z,17.48
2018-03-19T23:23:26.834Z,18.27
2018-03-19T23:25:52.916Z,16.40
2018-03-19T23:28:18.996Z,16.23
2018-03-19T23:30:45.856Z,19.55
2018-03-19T23:33:12.706Z,17.40
2018-03-19T23:35:39.572Z,18.55
2018-03-19T23:38:05.731Z,18.60
2018-03-19T23:40:31.856Z,17.58
2018-03-19T23:42:57.949Z,18.83
2018-03-19T23:45:24.040Z,16.65
2018-03-19T23:47:50.147Z,16.45
2018-03-19T23:50:17.051Z,16.05
2018-03-19T23:52:43.177Z,18.52
2018-03-19T23:55:09.257Z,16.37
2018-03-19T23:57:35.359Z,18.48
